createdAt,value
2024-02-13T00:00:42.669Z,93374.79
2024-02-13T00:04:39.429Z,93378.97
2024-02-13T00:08:33.304Z,93383.66
2024-02-13T00:12:29.684Z,93387.69
2024-02-13T00:16:17.399Z,93398.04
2024-02-13T00:19:47.642Z,93399.38
2024-02-13T00:23:35.375Z,93394.75
2024-02-13T00:27:23.210Z,93394.38
2024-02-13T00:31:11.118Z,93394.64
2024-02-13T00:34:58.967Z,93393.81
2024-02-13T00:38:39.477Z,93394.59
2024-02-13T00:42:27.296Z,93397.33
2024-02-13T00:46:15.130Z,93392.48
2024-02-13T00:50:03.127Z,93395.98
2024-02-13T00:53:50.846Z,93398.67
2024-02-13T00:57:38.741Z,93401.71
2024-02-13T01:01:26.545Z,93403.86
2024-02-13T01:05:14.282Z,93404.02
2024-02-13T01:09:02.255Z,93403.45
2024-02-13T01:12:49.932Z,93400.32
2024-02-13T01:16:37.660Z,93403.61
2024-02-13T01:20:25.423Z,93404.33
2024-02-13T01:24:13.357Z,93405.51
2024-02-13T01:28:01.043Z,93408.30
2024-02-13T01:31:49.577Z,93406.70
2024-02-13T01:35:38.874Z,93410.41
2024-02-13T01:39:26.608Z,93415.40
2024-02-13T01:43:14.387Z,93410.60
2024-02-13T01:47:02.202Z,93412.65
2024-02-13T01:50:50.095Z,93409.56
2024-02-13T01:54:37.856Z,93413.69
2024-02-13T01:58:25.686Z,93415.65
2024-02-13T02:02:12.628Z,93421.83
2024-02-13T02:06:00.548Z,93425.84
2024-02-13T02:09:48.376Z,93423.78
2024-02-13T02:13:36.070Z,93425.27
2024-02-13T02:17:24.121Z,93430.52
2024-02-13T02:21:12.194Z,93421.92
2024-02-13T02:25:00.144Z,93424.96
2024-02-13T02:28:46.675Z,93427.90
2024-02-13T02:32:34.666Z,93425.99
2024-02-13T02:36:22.962Z,93430.06
2024-02-13T02:40:10.625Z,93437.81
2024-02-13T02:43:57.982Z,93437.81
2024-02-13T02:47:45.854Z,93432.51
2024-02-13T02:51:33.757Z,93437.35
2024-02-13T02:55:21.462Z,93442.77
2024-02-13T02:59:09.291Z,93447.09
2024-02-13T03:02:57.238Z,93446.20
2024-02-13T03:06:45.186Z,93452.47
2024-02-13T03:10:32.953Z,93459.35
2024-02-13T03:14:20.840Z,93458.06
2024-02-13T03:18:09.052Z,93463.98
2024-02-13T03:21:39.581Z,93468.83
2024-02-13T03:25:26.221Z,93467.95
2024-02-13T03:29:14.075Z,93469.63
2024-02-13T03:33:02.240Z,93469.55
2024-02-13T03:36:50.540Z,93474.08
2024-02-13T03:40:30.942Z,93474.45
2024-02-13T03:44:18.581Z,93472.60
2024-02-13T03:48:06.501Z,93476.77
2024-02-13T03:51:54.228Z,93480.64
2024-02-13T03:55:41.868Z,93483.63
2024-02-13T03:59:29.712Z,93486.41
2024-02-13T04:03:17.477Z,93490.30
2024-02-13T04:07:05.088Z,93489.36
2024-02-13T04:10:52.687Z,93486.30
2024-02-13T04:14:40.593Z,93492.17
2024-02-13T04:18:28.573Z,93494.80
2024-02-13T04:22:16.245Z,93492.73
2024-02-13T04:26:04.085Z,93489.80
2024-02-13T04:29:51.845Z,93485.10
2024-02-13T04:33:39.705Z,93486.40
2024-02-13T04:37:27.430Z,93484.05
2024-02-13T04:41:15.255Z,93491.10
2024-02-13T04:45:02.852Z,93494.47
2024-02-13T04:48:50.610Z,93493.09
2024-02-13T04:52:38.543Z,93496.27
2024-02-13T04:56:26.303Z,93499.90
2024-02-13T05:00:14.184Z,93499.25
2024-02-13T05:04:00.593Z,93500.19
2024-02-13T05:07:48.379Z,93499.71
2024-02-13T05:11:36.199Z,93496.03
2024-02-13T05:15:14.120Z,93498.45
2024-02-13T05:18:13.908Z,93503.02
2024-02-13T05:21:52.888Z,93508.28
2024-02-13T05:25:40.969Z,93512.89
2024-02-13T05:28:52.858Z,93522.60
2024-02-13T05:32:43.130Z,93529.41
2024-02-13T05:36:31.148Z,93542.48
2024-02-13T05:40:19.190Z,93550.08
2024-02-13T05:44:07.206Z,93553.22
2024-02-13T05:47:57.117Z,93563.40
2024-02-13T05:51:19.146Z,93571.15
2024-02-13T05:53:52.881Z,93573.12
2024-02-13T05:57:38.374Z,93574.15
2024-02-13T06:01:30.146Z,93581.83
2024-02-13T06:05:12.313Z,93590.14
2024-02-13T06:10:04.046Z,93593.48
2024-02-13T06:13:34.627Z,93588.06
2024-02-13T06:17:05.543Z,93597.36
2024-02-13T06:20:48.533Z,93603.23
2024-02-13T06:29:16.110Z,93610.25
2024-02-13T06:33:10.713Z,93613.23
2024-02-13T06:36:58.754Z,93616.44
2024-02-13T06:40:48.120Z,93621.38
2024-02-13T06:44:26.396Z,93621.42
2024-02-13T06:47:48.619Z,93622.00
2024-02-13T06:51:21.420Z,93612.96
2024-02-13T06:55:03.531Z,93607.40
2024-02-13T06:59:14.310Z,93608.31
2024-02-13T07:16:26.567Z,93606.14
2024-02-13T07:25:57.609Z,93615.52
2024-02-13T07:29:59.056Z,93613.89
2024-02-13T07:33:54.454Z,93617.83
2024-02-13T07:38:23.188Z,93616.79
2024-02-13T07:41:58.329Z,93615.73
2024-02-13T07:45:55.094Z,93616.71
2024-02-13T07:49:52.339Z,93621.05
2024-02-13T07:53:55.273Z,93621.81
2024-02-13T07:57:46.544Z,93621.35
2024-02-13T08:01:34.537Z,93620.77
2024-02-13T08:05:23.443Z,93628.06
2024-02-13T08:27:59.929Z,93640.04
2024-02-13T08:32:33.390Z,93642.98
2024-02-13T08:51:36.440Z,93639.84
2024-02-13T08:56:21.972Z,93641.48
2024-02-13T09:01:23.683Z,93644.20
2024-02-13T09:05:44.789Z,93652.00
2024-02-13T09:19:35.659Z,93659.58
2024-02-13T09:23:33.268Z,93664.31
2024-02-13T09:27:18.221Z,93669.72
2024-02-13T09:31:58.875Z,93676.73
2024-02-13T09:34:57.199Z,93678.39
2024-02-13T09:38:39.320Z,93678.52
2024-02-13T09:42:21.085Z,93684.13
2024-02-13T09:46:31.229Z,93682.66
2024-02-13T09:50:28.285Z,93684.32
2024-02-13T09:54:31.298Z,93685.45
2024-02-13T09:58:03.441Z,93684.43
2024-02-13T10:01:54.344Z,93680.77
2024-02-13T10:06:40.044Z,93675.83
2024-02-13T10:10:25.051Z,93676.20
2024-02-13T10:19:39.363Z,93674.40
2024-02-13T10:23:35.421Z,93677.09
2024-02-13T10:27:27.744Z,93677.70
2024-02-13T10:31:30.396Z,93678.14
2024-02-13T10:35:59.140Z,93674.48
2024-02-13T10:40:23.031Z,93671.84
2024-02-13T10:43:50.416Z,93679.42
2024-02-13T10:47:26.865Z,93677.56
2024-02-13T10:50:52.216Z,93681.38
2024-02-13T10:54:43.866Z,93681.44
2024-02-13T10:58:24.585Z,93684.79
2024-02-13T11:02:30.577Z,93683.14
2024-02-13T11:06:18.258Z,93682.37
2024-02-13T11:10:13.766Z,93686.06
2024-02-13T11:14:44.787Z,93683.66
2024-02-13T11:19:34.413Z,93680.78
2024-02-13T11:24:44.305Z,93685.33
2024-02-13T11:29:07.112Z,93684.39
2024-02-13T11:33:17.889Z,93681.61
2024-02-13T11:42:10.221Z,93686.09
2024-02-13T11:50:47.352Z,93688.30
2024-02-13T11:54:36.951Z,93691.70
2024-02-13T11:58:22.352Z,93693.32
2024-02-13T12:01:45.142Z,93691.94
2024-02-13T12:05:33.811Z,93692.55
2024-02-13T12:09:23.137Z,93699.69
2024-02-13T12:13:12.996Z,93703.36
2024-02-13T12:16:44.504Z,93702.59
2024-02-13T12:20:27.356Z,93704.70
2024-02-13T12:24:16.535Z,93702.94
2024-02-13T12:28:05.711Z,93708.66
2024-02-13T12:31:42.266Z,93712.99
2024-02-13T12:35:31.907Z,93713.84
2024-02-13T12:39:23.806Z,93714.50
2024-02-13T12:43:12.859Z,93714.75
2024-02-13T12:47:02.345Z,93719.35
2024-02-13T12:50:52.331Z,93722.00
2024-02-13T12:54:42.212Z,93722.23
2024-02-13T12:58:16.848Z,93731.58
2024-02-13T13:02:08.776Z,93733.49
2024-02-13T13:05:58.754Z,93738.86
2024-02-13T13:09:48.129Z,93739.19
2024-02-13T13:13:37.237Z,93742.77
2024-02-13T13:17:06.124Z,93745.25
2024-02-13T13:20:56.308Z,93745.08
2024-02-13T13:24:45.603Z,93752.70
2024-02-13T13:28:34.653Z,93752.23
2024-02-13T13:32:23.830Z,93757.41
2024-02-13T13:36:13.034Z,93757.23
2024-02-13T13:40:02.604Z,93762.59
2024-02-13T13:43:52.020Z,93765.02
2024-02-13T13:47:41.423Z,93765.89
2024-02-13T13:51:30.568Z,93773.41
2024-02-13T13:55:19.744Z,93774.63
2024-02-13T13:59:09.010Z,93776.30
2024-02-13T14:02:58.284Z,93776.68
2024-02-13T14:06:47.561Z,93791.27
2024-02-13T14:09:50.727Z,93787.15
2024-02-13T14:13:32.232Z,93796.48
2024-02-13T14:17:21.504Z,93803.73
2024-02-13T14:21:10.769Z,93805.34
2024-02-13T14:24:59.931Z,93811.80
2024-02-13T14:28:49.055Z,93812.96
2024-02-13T14:32:38.310Z,93813.46
2024-02-13T14:36:27.603Z,93814.84
2024-02-13T14:40:16.724Z,93821.96
2024-02-13T14:43:45.741Z,93821.87
2024-02-13T14:47:35.106Z,93824.42
2024-02-13T14:51:07.395Z,93824.73
2024-02-13T14:54:56.506Z,93832.52
2024-02-13T14:58:45.401Z,93835.58
2024-02-13T15:02:34.584Z,93837.73
2024-02-13T15:06:24.729Z,93843.05
2024-02-13T15:10:13.938Z,93849.48
2024-02-13T15:14:03.374Z,93851.86
2024-02-13T15:17:55.278Z,93859.64
2024-02-13T15:21:44.468Z,93864.92
2024-02-13T15:25:33.614Z,93866.45
2024-02-13T15:29:22.908Z,93871.80
2024-02-13T15:32:57.256Z,93878.96
2024-02-13T15:36:52.628Z,93883.38
2024-02-13T15:40:39.842Z,93884.95
2024-02-13T15:44:27.443Z,93889.14
2024-02-13T15:48:16.669Z,93894.83
2024-02-13T15:52:05.983Z,93903.36
2024-02-13T15:55:55.229Z,93907.23
2024-02-13T15:59:44.411Z,93913.70
2024-02-13T16:03:33.936Z,93921.36
2024-02-13T16:07:23.166Z,93927.17
2024-02-13T16:11:15.390Z,93931.06
2024-02-13T16:15:04.533Z,93937.21
2024-02-13T16:18:53.863Z,93943.91
2024-02-13T16:22:43.263Z,93952.28
2024-02-13T16:26:32.618Z,93956.33
2024-02-13T16:30:21.795Z,93962.36
2024-02-13T16:34:12.885Z,93967.25
2024-02-13T16:38:01.980Z,93973.55
2024-02-13T16:41:56.936Z,93978.17
2024-02-13T16:45:46.184Z,93980.71
2024-02-13T16:49:35.471Z,93980.31
2024-02-13T16:53:25.830Z,93985.96
2024-02-13T16:57:15.057Z,93992.73
2024-02-13T17:01:04.318Z,93997.73
2024-02-13T17:04:53.370Z,94003.08
2024-02-13T17:08:42.544Z,94010.59
2024-02-13T17:12:31.736Z,94015.29
2024-02-13T17:16:20.822Z,94018.36
2024-02-13T17:20:10.241Z,94024.02
2024-02-13T17:23:59.372Z,94029.10
2024-02-13T17:27:48.626Z,94034.30
2024-02-13T17:31:40.787Z,94036.42
2024-02-13T17:35:29.924Z,94040.86
2024-02-13T17:39:19.402Z,94043.16
2024-02-13T17:43:08.678Z,94050.95
2024-02-13T17:46:57.803Z,94053.77
2024-02-13T17:50:47.131Z,94061.55
2024-02-13T17:54:36.293Z,94067.19
2024-02-13T17:58:25.428Z,94070.27
2024-02-13T18:02:14.510Z,94069.73
2024-02-13T18:05:52.283Z,94072.13
2024-02-13T18:09:41.556Z,94077.39
2024-02-13T18:13:30.427Z,94079.14
2024-02-13T18:17:19.461Z,94081.94
2024-02-13T18:21:09.119Z,94084.03
2024-02-13T18:24:58.429Z,94088.46
2024-02-13T18:28:47.570Z,94086.25
2024-02-13T18:32:36.721Z,94094.46
2024-02-13T18:36:25.956Z,94098.17
2024-02-13T18:40:15.393Z,94102.27
2024-02-13T18:44:04.842Z,94101.21
2024-02-13T18:47:54.123Z,94105.10
2024-02-13T18:51:43.740Z,94111.79
2024-02-13T18:55:32.780Z,94118.25
2024-02-13T18:59:15.120Z,94123.39
2024-02-13T19:03:04.355Z,94133.05
2024-02-13T19:06:53.683Z,94139.48
2024-02-13T19:10:45.826Z,94144.93
2024-02-13T19:14:34.938Z,94149.27
2024-02-13T19:18:26.550Z,94152.39
2024-02-13T19:22:15.729Z,94156.75
2024-02-13T19:26:04.993Z,94162.30
2024-02-13T19:29:54.318Z,94168.02
2024-02-13T19:33:44.168Z,94170.05
2024-02-13T19:37:33.437Z,94174.56
2024-02-13T19:41:22.527Z,94177.45
2024-02-13T19:44:51.724Z,94183.46
2024-02-13T19:48:41.097Z,94186.49
2024-02-13T19:52:30.335Z,94189.95
2024-02-13T19:56:19.639Z,94192.20
2024-02-13T20:00:08.832Z,94195.29
2024-02-13T20:03:57.964Z,94199.23
2024-02-13T20:07:47.394Z,94205.45
2024-02-13T20:11:36.651Z,94211.00
2024-02-13T20:15:25.721Z,94215.36
2024-02-13T20:19:05.021Z,94217.45
2024-02-13T20:22:53.317Z,94220.05
2024-02-13T20:26:42.559Z,94224.81
2024-02-13T20:30:31.827Z,94224.33
2024-02-13T20:34:21.129Z,94229.30
2024-02-13T20:38:10.484Z,94232.80
2024-02-13T20:42:00.717Z,94233.70
2024-02-13T20:45:49.982Z,94234.70
2024-02-13T20:49:39.134Z,94242.80
2024-02-13T20:53:28.241Z,94248.39
2024-02-13T20:57:17.413Z,94254.30
2024-02-13T21:01:06.738Z,94259.75
2024-02-13T21:04:48.861Z,94258.66
2024-02-13T21:08:38.063Z,94270.00
2024-02-13T21:12:27.205Z,94271.55
2024-02-13T21:16:16.245Z,94281.46
2024-02-13T21:20:05.696Z,94285.76
2024-02-13T21:24:13.606Z,94287.55
2024-02-13T21:28:03.028Z,94284.95
2024-02-13T21:31:52.231Z,94287.27
2024-02-13T21:35:41.420Z,94291.08
2024-02-13T21:39:30.449Z,94297.18
2024-02-13T21:43:22.045Z,94304.05
2024-02-13T21:47:11.504Z,94310.09
2024-02-13T21:51:00.871Z,94312.94
2024-02-13T21:54:50.005Z,94316.16
2024-02-13T21:58:39.186Z,94317.16
2024-02-13T22:02:28.242Z,94322.02
2024-02-13T22:06:17.512Z,94324.39
2024-02-13T22:10:06.825Z,94329.16
2024-02-13T22:13:56.200Z,94331.29
2024-02-13T22:17:45.917Z,94331.54
2024-02-13T22:21:35.425Z,94334.25
2024-02-13T22:25:24.485Z,94332.96
2024-02-13T22:29:13.691Z,94340.69
2024-02-13T22:33:03.583Z,94339.59
2024-02-13T22:36:53.446Z,94340.54
2024-02-13T22:40:46.547Z,94346.27
2024-02-13T22:44:36.139Z,94344.35
2024-02-13T22:48:25.825Z,94349.20
2024-02-13T22:52:15.045Z,94356.66
2024-02-13T22:56:04.048Z,94354.94
2024-02-13T22:59:53.577Z,94356.88
2024-02-13T23:03:44.255Z,94358.06
2024-02-13T23:07:33.446Z,94358.88
2024-02-13T23:11:22.782Z,94363.14
2024-02-13T23:15:12.785Z,94365.41
2024-02-13T23:19:02.174Z,94365.48
2024-02-13T23:22:51.526Z,94369.89
2024-02-13T23:26:40.684Z,94373.90
2024-02-13T23:30:29.790Z,94367.42
2024-02-13T23:34:19.461Z,94369.81
2024-02-13T23:38:08.785Z,94373.63
2024-02-13T23:41:58.235Z,94378.87
2024-02-13T23:45:50.555Z,94386.38
2024-02-13T23:49:39.853Z,94388.07
2024-02-13T23:53:50.060Z,94389.71
2024-02-13T23:57:39.710Z,94396.35
